Marmaduke, Arkansas
Current Conditions -  °F | °C
As of 5:35 PM on Saturday 25 Oct 2014 (Local Time) from K4M9 Reporting Station
Light Rain Light Rain  
Wind Chill: 81°   Ceiling: Unl
Heat Index: 83°   Visibility: 9mi
Dew Point: 66°   Wind: 6mph
Humidity: 61%   Direction: 180°S
Pressure: 30"   Gusts: NA
Location:  36.19°N, 90.38°W
Report Text: K4M9 252235Z AUTO 18005KT 9SM -RA CLR 27/19 A3000 RMK AO2
Loading
Personal Weather Stations






























Interactive Weather Map New forecast layout! Learn more

10-Day Weather Forecast

Advertisements
Track Severe Weather on mobile